sensor_id;sensor_type;location;lat;lon;timestamp;P1;durP1;ratioP1;P2;durP2;ratioP2
77322;SDS011;66384;51.052;9.850;2023-03-23T00:00:21;1.40;;;1.10;;
77322;SDS011;66384;51.052;9.850;2023-03-23T00:02:51;1.00;;;0.90;;
77322;SDS011;66384;51.052;9.850;2023-03-23T00:05:21;2.10;;;1.10;;
77322;SDS011;66384;51.052;9.850;2023-03-23T00:07:50;1.50;;;0.90;;
77322;SDS011;66384;51.052;9.850;2023-03-23T00:10:21;1.80;;;0.90;;
77322;SDS011;66384;51.052;9.850;2023-03-23T00:15:23;0.80;;;0.80;;
77322;SDS011;66384;51.052;9.850;2023-03-23T00:17:52;1.80;;;1.10;;
77322;SDS011;66384;51.052;9.850;2023-03-23T00:20:28;1.80;;;0.90;;
77322;SDS011;66384;51.052;9.850;2023-03-23T00:23:03;1.80;;;1.20;;
77322;SDS011;66384;51.052;9.850;2023-03-23T00:25:33;1.20;;;0.80;;
77322;SDS011;66384;51.052;9.850;2023-03-23T00:38:25;2.50;;;1.00;;
77322;SDS011;66384;51.052;9.850;2023-03-23T00:40:54;1.60;;;1.00;;
77322;SDS011;66384;51.052;9.850;2023-03-23T00:43:23;1.70;;;1.10;;
77322;SDS011;66384;51.052;9.850;2023-03-23T00:45:55;1.20;;;0.90;;
77322;SDS011;66384;51.052;9.850;2023-03-23T00:48:27;2.70;;;0.90;;
77322;SDS011;66384;51.052;9.850;2023-03-23T00:50:59;1.40;;;1.10;;
77322;SDS011;66384;51.052;9.850;2023-03-23T00:53:32;1.40;;;1.00;;
77322;SDS011;66384;51.052;9.850;2023-03-23T00:56:02;1.40;;;1.00;;
77322;SDS011;66384;51.052;9.850;2023-03-23T00:58:32;1.80;;;0.90;;
77322;SDS011;66384;51.052;9.850;2023-03-23T01:01:01;2.10;;;1.10;;
77322;SDS011;66384;51.052;9.850;2023-03-23T01:03:32;1.50;;;1.10;;
77322;SDS011;66384;51.052;9.850;2023-03-23T01:06:05;1.40;;;0.90;;
77322;SDS011;66384;51.052;9.850;2023-03-23T01:08:39;2.70;;;1.20;;
77322;SDS011;66384;51.052;9.850;2023-03-23T01:11:12;1.00;;;0.80;;
77322;SDS011;66384;51.052;9.850;2023-03-23T01:13:43;1.00;;;1.00;;
77322;SDS011;66384;51.052;9.850;2023-03-23T01:16:12;1.30;;;1.00;;
77322;SDS011;66384;51.052;9.850;2023-03-23T01:18:41;1.50;;;1.20;;
77322;SDS011;66384;51.052;9.850;2023-03-23T01:21:12;1.50;;;1.10;;
77322;SDS011;66384;51.052;9.850;2023-03-23T01:23:43;1.40;;;0.90;;
77322;SDS011;66384;51.052;9.850;2023-03-23T01:26:13;2.20;;;1.10;;
77322;SDS011;66384;51.052;9.850;2023-03-23T01:28:44;2.50;;;1.10;;
77322;SDS011;66384;51.052;9.850;2023-03-23T01:31:14;1.30;;;0.70;;
77322;SDS011;66384;51.052;9.850;2023-03-23T01:33:44;1.30;;;1.10;;
77322;SDS011;66384;51.052;9.850;2023-03-23T01:36:15;0.80;;;0.80;;
77322;SDS011;66384;51.052;9.850;2023-03-23T01:38:46;1.40;;;1.00;;
77322;SDS011;66384;51.052;9.850;2023-03-23T01:43:56;1.40;;;1.00;;
77322;SDS011;66384;51.052;9.850;2023-03-23T01:46:28;2.60;;;0.90;;
77322;SDS011;66384;51.052;9.850;2023-03-23T01:49:00;0.90;;;0.80;;
77322;SDS011;66384;51.052;9.850;2023-03-23T01:51:36;5.20;;;1.00;;
77322;SDS011;66384;51.052;9.850;2023-03-23T01:54:11;1.10;;;0.90;;
77322;SDS011;66384;51.052;9.850;2023-03-23T01:56:48;1.50;;;1.00;;
77322;SDS011;66384;51.052;9.850;2023-03-23T01:59:22;2.00;;;1.00;;
77322;SDS011;66384;51.052;9.850;2023-03-23T02:01:53;1.70;;;1.10;;
77322;SDS011;66384;51.052;9.850;2023-03-23T02:04:23;1.10;;;1.00;;
77322;SDS011;66384;51.052;9.850;2023-03-23T02:06:54;1.30;;;1.00;;
77322;SDS011;66384;51.052;9.850;2023-03-23T02:09:25;1.50;;;0.70;;
77322;SDS011;66384;51.052;9.850;2023-03-23T02:11:55;2.30;;;1.00;;
77322;SDS011;66384;51.052;9.850;2023-03-23T02:14:25;1.40;;;0.90;;
77322;SDS011;66384;51.052;9.850;2023-03-23T02:19:34;2.10;;;0.90;;
77322;SDS011;66384;51.052;9.850;2023-03-23T02:22:27;3.00;;;1.20;;
77322;SDS011;66384;51.052;9.850;2023-03-23T02:28:27;1.90;;;1.00;;
77322;SDS011;66384;51.052;9.850;2023-03-23T02:31:08;1.20;;;1.00;;
77322;SDS011;66384;51.052;9.850;2023-03-23T02:34:05;1.20;;;0.90;;
77322;SDS011;66384;51.052;9.850;2023-03-23T02:36:39;2.10;;;1.10;;
77322;SDS011;66384;51.052;9.850;2023-03-23T02:39:13;1.60;;;0.90;;
77322;SDS011;66384;51.052;9.850;2023-03-23T02:41:49;1.30;;;0.90;;
77322;SDS011;66384;51.052;9.850;2023-03-23T02:44:22;1.70;;;1.00;;
77322;SDS011;66384;51.052;9.850;2023-03-23T02:46:56;2.60;;;1.10;;
77322;SDS011;66384;51.052;9.850;2023-03-23T02:49:28;2.60;;;1.00;;
77322;SDS011;66384;51.052;9.850;2023-03-23T02:52:01;1.30;;;1.10;;
77322;SDS011;66384;51.052;9.850;2023-03-23T02:54:33;1.00;;;0.90;;
77322;SDS011;66384;51.052;9.850;2023-03-23T02:57:03;2.00;;;0.90;;
77322;SDS011;66384;51.052;9.850;2023-03-23T02:59:33;1.50;;;0.90;;
77322;SDS011;66384;51.052;9.850;2023-03-23T03:02:04;1.00;;;0.70;;
77322;SDS011;66384;51.052;9.850;2023-03-23T03:04:37;2.20;;;1.20;;
77322;SDS011;66384;51.052;9.850;2023-03-23T03:07:17;1.30;;;1.00;;
77322;SDS011;66384;51.052;9.850;2023-03-23T03:09:58;2.70;;;1.20;;
77322;SDS011;66384;51.052;9.850;2023-03-23T03:12:32;1.40;;;1.00;;
77322;SDS011;66384;51.052;9.850;2023-03-23T03:15:10;1.90;;;1.30;;
77322;SDS011;66384;51.052;9.850;2023-03-23T03:17:51;0.90;;;0.80;;
77322;SDS011;66384;51.052;9.850;2023-03-23T03:20:27;3.20;;;1.10;;
77322;SDS011;66384;51.052;9.850;2023-03-23T03:22:58;1.60;;;0.90;;
77322;SDS011;66384;51.052;9.850;2023-03-23T03:25:29;1.70;;;1.20;;
77322;SDS011;66384;51.052;9.850;2023-03-23T03:27:59;1.10;;;0.80;;
77322;SDS011;66384;51.052;9.850;2023-03-23T03:33:00;1.90;;;1.10;;
77322;SDS011;66384;51.052;9.850;2023-03-23T03:35:31;1.20;;;1.00;;
77322;SDS011;66384;51.052;9.850;2023-03-23T03:38:06;1.30;;;1.00;;
77322;SDS011;66384;51.052;9.850;2023-03-23T03:40:37;1.70;;;1.10;;
77322;SDS011;66384;51.052;9.850;2023-03-23T03:43:06;1.00;;;0.90;;
77322;SDS011;66384;51.052;9.850;2023-03-23T03:45:36;1.70;;;1.20;;
77322;SDS011;66384;51.052;9.850;2023-03-23T03:50:35;2.00;;;0.90;;
77322;SDS011;66384;51.052;9.850;2023-03-23T03:53:05;1.80;;;1.10;;
77322;SDS011;66384;51.052;9.850;2023-03-23T03:55:34;2.40;;;1.20;;
77322;SDS011;66384;51.052;9.850;2023-03-23T03:58:04;2.30;;;1.00;;
77322;SDS011;66384;51.052;9.850;2023-03-23T04:00:34;1.50;;;1.10;;
77322;SDS011;66384;51.052;9.850;2023-03-23T04:03:05;2.10;;;1.20;;
77322;SDS011;66384;51.052;9.850;2023-03-23T04:05:35;2.00;;;1.30;;
77322;SDS011;66384;51.052;9.850;2023-03-23T04:08:04;1.70;;;1.20;;
77322;SDS011;66384;51.052;9.850;2023-03-23T04:10:34;2.40;;;0.90;;
77322;SDS011;66384;51.052;9.850;2023-03-23T04:13:03;1.10;;;0.80;;
77322;SDS011;66384;51.052;9.850;2023-03-23T04:15:32;1.20;;;1.00;;
77322;SDS011;66384;51.052;9.850;2023-03-23T04:18:02;2.20;;;1.20;;
77322;SDS011;66384;51.052;9.850;2023-03-23T04:20:32;1.80;;;0.80;;
77322;SDS011;66384;51.052;9.850;2023-03-23T04:23:01;1.70;;;0.90;;
77322;SDS011;66384;51.052;9.850;2023-03-23T04:25:31;3.80;;;1.40;;
77322;SDS011;66384;51.052;9.850;2023-03-23T04:28:02;1.50;;;1.20;;
77322;SDS011;66384;51.052;9.850;2023-03-23T04:30:32;1.60;;;1.00;;
77322;SDS011;66384;51.052;9.850;2023-03-23T04:33:01;2.00;;;0.80;;
77322;SDS011;66384;51.052;9.850;2023-03-23T04:35:31;1.90;;;1.30;;
77322;SDS011;66384;51.052;9.850;2023-03-23T04:38:00;1.70;;;1.30;;
77322;SDS011;66384;51.052;9.850;2023-03-23T04:40:30;2.40;;;1.20;;
77322;SDS011;66384;51.052;9.850;2023-03-23T04:42:59;1.40;;;1.10;;
77322;SDS011;66384;51.052;9.850;2023-03-23T04:45:32;1.60;;;1.10;;
77322;SDS011;66384;51.052;9.850;2023-03-23T04:48:04;3.20;;;1.10;;
77322;SDS011;66384;51.052;9.850;2023-03-23T04:50:34;1.80;;;1.10;;
77322;SDS011;66384;51.052;9.850;2023-03-23T04:53:03;1.70;;;1.10;;
77322;SDS011;66384;51.052;9.850;2023-03-23T04:55:34;1.80;;;1.10;;
77322;SDS011;66384;51.052;9.850;2023-03-23T04:58:04;2.20;;;1.10;;
77322;SDS011;66384;51.052;9.850;2023-03-23T05:00:34;1.60;;;0.90;;
77322;SDS011;66384;51.052;9.850;2023-03-23T05:03:04;2.40;;;1.30;;
77322;SDS011;66384;51.052;9.850;2023-03-23T05:05:34;2.80;;;1.20;;
77322;SDS011;66384;51.052;9.850;2023-03-23T05:08:04;1.40;;;1.20;;
77322;SDS011;66384;51.052;9.850;2023-03-23T05:10:33;1.50;;;1.40;;
77322;SDS011;66384;51.052;9.850;2023-03-23T05:13:03;1.30;;;0.90;;
77322;SDS011;66384;51.052;9.850;2023-03-23T05:15:32;1.80;;;1.30;;
77322;SDS011;66384;51.052;9.850;2023-03-23T05:18:02;1.70;;;1.00;;
77322;SDS011;66384;51.052;9.850;2023-03-23T05:20:31;2.40;;;1.30;;
77322;SDS011;66384;51.052;9.850;2023-03-23T05:23:01;2.60;;;1.00;;
77322;SDS011;66384;51.052;9.850;2023-03-23T05:25:31;1.40;;;1.00;;
77322;SDS011;66384;51.052;9.850;2023-03-23T05:28:06;1.30;;;1.00;;
77322;SDS011;66384;51.052;9.850;2023-03-23T05:30:37;2.00;;;1.00;;
77322;SDS011;66384;51.052;9.850;2023-03-23T05:33:06;1.50;;;1.10;;
77322;SDS011;66384;51.052;9.850;2023-03-23T05:35:36;1.30;;;1.00;;
77322;SDS011;66384;51.052;9.850;2023-03-23T05:38:05;1.40;;;1.00;;
77322;SDS011;66384;51.052;9.850;2023-03-23T05:40:35;2.10;;;1.10;;
77322;SDS011;66384;51.052;9.850;2023-03-23T05:43:04;1.70;;;1.10;;
77322;SDS011;66384;51.052;9.850;2023-03-23T05:45:34;1.60;;;1.20;;
77322;SDS011;66384;51.052;9.850;2023-03-23T05:48:03;1.90;;;1.20;;
77322;SDS011;66384;51.052;9.850;2023-03-23T05:50:33;1.50;;;1.10;;
77322;SDS011;66384;51.052;9.850;2023-03-23T05:53:02;1.50;;;1.10;;
77322;SDS011;66384;51.052;9.850;2023-03-23T05:55:32;2.20;;;1.40;;
77322;SDS011;66384;51.052;9.850;2023-03-23T05:58:01;1.30;;;1.00;;
77322;SDS011;66384;51.052;9.850;2023-03-23T06:00:30;2.60;;;1.40;;
77322;SDS011;66384;51.052;9.850;2023-03-23T06:03:01;1.90;;;1.30;;
77322;SDS011;66384;51.052;9.850;2023-03-23T06:05:30;1.90;;;1.20;;
77322;SDS011;66384;51.052;9.850;2023-03-23T06:08:00;1.90;;;1.30;;
77322;SDS011;66384;51.052;9.850;2023-03-23T06:10:29;2.40;;;1.40;;
77322;SDS011;66384;51.052;9.850;2023-03-23T06:13:02;1.30;;;1.00;;
77322;SDS011;66384;51.052;9.850;2023-03-23T06:15:32;2.00;;;1.40;;
77322;SDS011;66384;51.052;9.850;2023-03-23T06:18:02;2.00;;;1.30;;
77322;SDS011;66384;51.052;9.850;2023-03-23T06:20:32;2.00;;;1.00;;
77322;SDS011;66384;51.052;9.850;2023-03-23T06:23:01;1.70;;;1.30;;
77322;SDS011;66384;51.052;9.850;2023-03-23T06:25:31;1.60;;;1.20;;
77322;SDS011;66384;51.052;9.850;2023-03-23T06:28:01;2.20;;;1.40;;
77322;SDS011;66384;51.052;9.850;2023-03-23T06:30:31;2.20;;;1.30;;
77322;SDS011;66384;51.052;9.850;2023-03-23T06:33:00;1.20;;;1.00;;
77322;SDS011;66384;51.052;9.850;2023-03-23T06:35:31;2.50;;;1.60;;
77322;SDS011;66384;51.052;9.850;2023-03-23T06:38:01;2.10;;;1.50;;
77322;SDS011;66384;51.052;9.850;2023-03-23T06:40:30;1.80;;;1.00;;
77322;SDS011;66384;51.052;9.850;2023-03-23T06:43:00;2.50;;;1.60;;
77322;SDS011;66384;51.052;9.850;2023-03-23T06:45:30;2.80;;;1.40;;
77322;SDS011;66384;51.052;9.850;2023-03-23T06:48:00;1.10;;;1.00;;
77322;SDS011;66384;51.052;9.850;2023-03-23T06:50:30;2.30;;;1.70;;
77322;SDS011;66384;51.052;9.850;2023-03-23T06:52:59;2.90;;;1.80;;
77322;SDS011;66384;51.052;9.850;2023-03-23T06:55:28;3.60;;;1.60;;
77322;SDS011;66384;51.052;9.850;2023-03-23T06:57:58;2.00;;;1.60;;
77322;SDS011;66384;51.052;9.850;2023-03-23T07:00:27;2.20;;;1.40;;
77322;SDS011;66384;51.052;9.850;2023-03-23T07:02:57;1.40;;;1.00;;
77322;SDS011;66384;51.052;9.850;2023-03-23T07:05:26;2.00;;;1.30;;
77322;SDS011;66384;51.052;9.850;2023-03-23T07:07:56;2.50;;;1.50;;
77322;SDS011;66384;51.052;9.850;2023-03-23T07:10:26;2.30;;;1.70;;
77322;SDS011;66384;51.052;9.850;2023-03-23T07:12:55;3.50;;;1.60;;
77322;SDS011;66384;51.052;9.850;2023-03-23T07:15:25;2.20;;;1.50;;
77322;SDS011;66384;51.052;9.850;2023-03-23T07:17:55;3.10;;;1.50;;
77322;SDS011;66384;51.052;9.850;2023-03-23T07:20:24;2.10;;;1.30;;
77322;SDS011;66384;51.052;9.850;2023-03-23T07:22:54;1.70;;;1.30;;
77322;SDS011;66384;51.052;9.850;2023-03-23T07:25:23;2.10;;;1.70;;
77322;SDS011;66384;51.052;9.850;2023-03-23T07:27:53;2.10;;;1.40;;
77322;SDS011;66384;51.052;9.850;2023-03-23T07:30:22;2.90;;;1.80;;
77322;SDS011;66384;51.052;9.850;2023-03-23T07:32:52;3.70;;;2.10;;
77322;SDS011;66384;51.052;9.850;2023-03-23T07:35:22;3.30;;;1.90;;
77322;SDS011;66384;51.052;9.850;2023-03-23T07:37:51;3.40;;;1.60;;
77322;SDS011;66384;51.052;9.850;2023-03-23T07:40:21;2.40;;;1.50;;
77322;SDS011;66384;51.052;9.850;2023-03-23T07:42:53;2.20;;;1.60;;
77322;SDS011;66384;51.052;9.850;2023-03-23T07:45:23;2.30;;;1.60;;
77322;SDS011;66384;51.052;9.850;2023-03-23T07:47:54;1.80;;;1.30;;
77322;SDS011;66384;51.052;9.850;2023-03-23T07:50:23;1.60;;;1.20;;
77322;SDS011;66384;51.052;9.850;2023-03-23T07:52:54;2.20;;;1.60;;
77322;SDS011;66384;51.052;9.850;2023-03-23T07:55:25;2.20;;;1.60;;
77322;SDS011;66384;51.052;9.850;2023-03-23T07:57:55;3.10;;;2.20;;
77322;SDS011;66384;51.052;9.850;2023-03-23T08:00:24;3.20;;;2.00;;
77322;SDS011;66384;51.052;9.850;2023-03-23T08:02:55;3.50;;;2.50;;
77322;SDS011;66384;51.052;9.850;2023-03-23T08:05:26;3.80;;;2.30;;
77322;SDS011;66384;51.052;9.850;2023-03-23T08:07:56;3.50;;;2.10;;
77322;SDS011;66384;51.052;9.850;2023-03-23T08:10:26;4.30;;;2.00;;
77322;SDS011;66384;51.052;9.850;2023-03-23T08:12:56;4.60;;;3.00;;
77322;SDS011;66384;51.052;9.850;2023-03-23T08:17:55;3.90;;;2.20;;
77322;SDS011;66384;51.052;9.850;2023-03-23T08:20:27;3.60;;;2.60;;
77322;SDS011;66384;51.052;9.850;2023-03-23T08:22:56;4.30;;;2.70;;
77322;SDS011;66384;51.052;9.850;2023-03-23T08:25:26;4.20;;;2.10;;
77322;SDS011;66384;51.052;9.850;2023-03-23T08:27:57;5.00;;;2.70;;
77322;SDS011;66384;51.052;9.850;2023-03-23T08:30:29;4.30;;;2.50;;
77322;SDS011;66384;51.052;9.850;2023-03-23T08:33:00;3.00;;;2.00;;
77322;SDS011;66384;51.052;9.850;2023-03-23T08:37:59;2.90;;;1.90;;
77322;SDS011;66384;51.052;9.850;2023-03-23T08:40:28;3.40;;;2.20;;
77322;SDS011;66384;51.052;9.850;2023-03-23T08:42:58;3.60;;;2.30;;
77322;SDS011;66384;51.052;9.850;2023-03-23T08:45:28;2.90;;;2.10;;
77322;SDS011;66384;51.052;9.850;2023-03-23T08:47:57;3.20;;;2.20;;
77322;SDS011;66384;51.052;9.850;2023-03-23T08:50:27;3.80;;;2.30;;
77322;SDS011;66384;51.052;9.850;2023-03-23T08:52:58;3.20;;;2.20;;
77322;SDS011;66384;51.052;9.850;2023-03-23T08:55:28;3.40;;;2.30;;
77322;SDS011;66384;51.052;9.850;2023-03-23T08:57:57;4.40;;;2.10;;
77322;SDS011;66384;51.052;9.850;2023-03-23T09:00:27;3.80;;;2.20;;
77322;SDS011;66384;51.052;9.850;2023-03-23T09:02:56;3.80;;;2.20;;
77322;SDS011;66384;51.052;9.850;2023-03-23T09:05:26;4.20;;;2.30;;
77322;SDS011;66384;51.052;9.850;2023-03-23T09:07:56;3.40;;;2.50;;
77322;SDS011;66384;51.052;9.850;2023-03-23T09:10:26;2.90;;;1.90;;
77322;SDS011;66384;51.052;9.850;2023-03-23T09:12:57;3.60;;;2.20;;
77322;SDS011;66384;51.052;9.850;2023-03-23T09:15:26;2.60;;;1.60;;
77322;SDS011;66384;51.052;9.850;2023-03-23T09:17:56;2.60;;;2.00;;
77322;SDS011;66384;51.052;9.850;2023-03-23T09:20:27;3.00;;;2.00;;
77322;SDS011;66384;51.052;9.850;2023-03-23T09:22:57;3.20;;;2.20;;
77322;SDS011;66384;51.052;9.850;2023-03-23T09:25:27;4.10;;;2.40;;
77322;SDS011;66384;51.052;9.850;2023-03-23T09:27:57;2.70;;;1.80;;
77322;SDS011;66384;51.052;9.850;2023-03-23T09:30:28;2.70;;;1.80;;
77322;SDS011;66384;51.052;9.850;2023-03-23T09:33:02;2.60;;;1.90;;
77322;SDS011;66384;51.052;9.850;2023-03-23T09:35:32;3.00;;;1.80;;
77322;SDS011;66384;51.052;9.850;2023-03-23T09:38:04;4.80;;;3.10;;
77322;SDS011;66384;51.052;9.850;2023-03-23T09:40:35;3.80;;;2.50;;
77322;SDS011;66384;51.052;9.850;2023-03-23T09:43:19;2.80;;;1.70;;
77322;SDS011;66384;51.052;9.850;2023-03-23T09:45:58;3.50;;;2.10;;
77322;SDS011;66384;51.052;9.850;2023-03-23T09:48:36;3.30;;;2.30;;
77322;SDS011;66384;51.052;9.850;2023-03-23T09:51:16;3.50;;;2.00;;
77322;SDS011;66384;51.052;9.850;2023-03-23T09:53:53;2.30;;;1.50;;
77322;SDS011;66384;51.052;9.850;2023-03-23T09:56:28;3.30;;;1.70;;
77322;SDS011;66384;51.052;9.850;2023-03-23T09:59:00;2.50;;;1.70;;
77322;SDS011;66384;51.052;9.850;2023-03-23T10:01:37;2.70;;;1.70;;
77322;SDS011;66384;51.052;9.850;2023-03-23T10:04:12;3.20;;;2.30;;
77322;SDS011;66384;51.052;9.850;2023-03-23T10:06:49;3.20;;;1.90;;
77322;SDS011;66384;51.052;9.850;2023-03-23T10:09:18;2.60;;;1.80;;
77322;SDS011;66384;51.052;9.850;2023-03-23T10:11:53;1.90;;;1.40;;
77322;SDS011;66384;51.052;9.850;2023-03-23T10:14:33;3.30;;;1.90;;
77322;SDS011;66384;51.052;9.850;2023-03-23T10:17:13;2.50;;;1.40;;
77322;SDS011;66384;51.052;9.850;2023-03-23T10:19:53;2.10;;;1.60;;
77322;SDS011;66384;51.052;9.850;2023-03-23T10:22:36;3.20;;;1.90;;
77322;SDS011;66384;51.052;9.850;2023-03-23T10:25:14;2.80;;;1.90;;
77322;SDS011;66384;51.052;9.850;2023-03-23T10:27:48;5.10;;;1.60;;
77322;SDS011;66384;51.052;9.850;2023-03-23T10:30:24;2.20;;;1.40;;
77322;SDS011;66384;51.052;9.850;2023-03-23T10:32:58;1.70;;;1.30;;
77322;SDS011;66384;51.052;9.850;2023-03-23T10:35:33;2.00;;;1.40;;
77322;SDS011;66384;51.052;9.850;2023-03-23T10:38:09;2.40;;;1.60;;
77322;SDS011;66384;51.052;9.850;2023-03-23T10:40:45;1.80;;;1.20;;
77322;SDS011;66384;51.052;9.850;2023-03-23T10:43:25;1.60;;;1.20;;
77322;SDS011;66384;51.052;9.850;2023-03-23T10:45:57;3.10;;;1.90;;
77322;SDS011;66384;51.052;9.850;2023-03-23T10:48:30;2.20;;;1.40;;
77322;SDS011;66384;51.052;9.850;2023-03-23T10:51:06;1.70;;;1.30;;
77322;SDS011;66384;51.052;9.850;2023-03-23T10:53:42;1.50;;;1.40;;
77322;SDS011;66384;51.052;9.850;2023-03-23T10:56:22;2.30;;;1.40;;
77322;SDS011;66384;51.052;9.850;2023-03-23T10:58:53;2.20;;;1.60;;
77322;SDS011;66384;51.052;9.850;2023-03-23T11:01:29;2.20;;;1.50;;
77322;SDS011;66384;51.052;9.850;2023-03-23T11:04:01;2.20;;;1.20;;
77322;SDS011;66384;51.052;9.850;2023-03-23T11:06:32;1.70;;;1.20;;
77322;SDS011;66384;51.052;9.850;2023-03-23T11:09:10;1.30;;;0.80;;
77322;SDS011;66384;51.052;9.850;2023-03-23T11:11:42;2.40;;;1.20;;
77322;SDS011;66384;51.052;9.850;2023-03-23T11:14:17;2.20;;;1.30;;
77322;SDS011;66384;51.052;9.850;2023-03-23T11:16:52;1.60;;;1.20;;
77322;SDS011;66384;51.052;9.850;2023-03-23T11:19:24;2.00;;;1.30;;
77322;SDS011;66384;51.052;9.850;2023-03-23T11:22:05;1.90;;;1.30;;
77322;SDS011;66384;51.052;9.850;2023-03-23T11:24:36;3.00;;;1.40;;
77322;SDS011;66384;51.052;9.850;2023-03-23T11:27:10;2.00;;;1.30;;
77322;SDS011;66384;51.052;9.850;2023-03-23T11:29:45;1.50;;;1.10;;
77322;SDS011;66384;51.052;9.850;2023-03-23T11:32:18;1.40;;;1.00;;
77322;SDS011;66384;51.052;9.850;2023-03-23T11:34:56;1.60;;;0.90;;
77322;SDS011;66384;51.052;9.850;2023-03-23T11:37:31;1.20;;;0.90;;
77322;SDS011;66384;51.052;9.850;2023-03-23T11:40:14;1.90;;;1.30;;
77322;SDS011;66384;51.052;9.850;2023-03-23T11:42:46;1.70;;;1.10;;
77322;SDS011;66384;51.052;9.850;2023-03-23T11:45:20;1.50;;;1.30;;
77322;SDS011;66384;51.052;9.850;2023-03-23T11:47:56;3.00;;;1.20;;
77322;SDS011;66384;51.052;9.850;2023-03-23T11:50:32;1.90;;;1.40;;
77322;SDS011;66384;51.052;9.850;2023-03-23T11:53:08;2.20;;;1.20;;
77322;SDS011;66384;51.052;9.850;2023-03-23T11:58:21;1.80;;;1.30;;
77322;SDS011;66384;51.052;9.850;2023-03-23T12:00:54;2.00;;;1.20;;
77322;SDS011;66384;51.052;9.850;2023-03-23T12:03:31;1.20;;;1.10;;
77322;SDS011;66384;51.052;9.850;2023-03-23T12:08:51;1.70;;;1.20;;
77322;SDS011;66384;51.052;9.850;2023-03-23T12:11:28;3.50;;;1.70;;
77322;SDS011;66384;51.052;9.850;2023-03-23T12:14:09;5.40;;;1.50;;
77322;SDS011;66384;51.052;9.850;2023-03-23T12:16:59;1.90;;;1.10;;
77322;SDS011;66384;51.052;9.850;2023-03-23T12:19:39;1.40;;;1.20;;
77322;SDS011;66384;51.052;9.850;2023-03-23T12:22:18;1.70;;;1.30;;
77322;SDS011;66384;51.052;9.850;2023-03-23T12:25:10;1.70;;;1.00;;
77322;SDS011;66384;51.052;9.850;2023-03-23T12:28:00;1.90;;;1.30;;
77322;SDS011;66384;51.052;9.850;2023-03-23T12:30:35;1.40;;;1.10;;
77322;SDS011;66384;51.052;9.850;2023-03-23T12:33:18;3.10;;;1.30;;
77322;SDS011;66384;51.052;9.850;2023-03-23T12:35:59;2.00;;;1.30;;
77322;SDS011;66384;51.052;9.850;2023-03-23T12:38:44;1.90;;;1.30;;
77322;SDS011;66384;51.052;9.850;2023-03-23T12:41:24;2.10;;;1.30;;
77322;SDS011;66384;51.052;9.850;2023-03-23T12:43:59;1.40;;;0.90;;
77322;SDS011;66384;51.052;9.850;2023-03-23T12:46:40;1.00;;;1.00;;
77322;SDS011;66384;51.052;9.850;2023-03-23T12:49:19;1.30;;;1.10;;
77322;SDS011;66384;51.052;9.850;2023-03-23T12:51:54;1.70;;;1.20;;
77322;SDS011;66384;51.052;9.850;2023-03-23T12:54:28;2.30;;;1.30;;
77322;SDS011;66384;51.052;9.850;2023-03-23T12:57:02;2.00;;;1.50;;
77322;SDS011;66384;51.052;9.850;2023-03-23T12:59:45;3.00;;;1.20;;
77322;SDS011;66384;51.052;9.850;2023-03-23T13:02:21;1.30;;;1.00;;
77322;SDS011;66384;51.052;9.850;2023-03-23T13:04:55;2.40;;;1.30;;
77322;SDS011;66384;51.052;9.850;2023-03-23T13:07:29;2.50;;;1.10;;
77322;SDS011;66384;51.052;9.850;2023-03-23T13:10:03;2.20;;;1.00;;
77322;SDS011;66384;51.052;9.850;2023-03-23T13:12:41;1.50;;;1.10;;
77322;SDS011;66384;51.052;9.850;2023-03-23T13:15:17;1.60;;;1.10;;
77322;SDS011;66384;51.052;9.850;2023-03-23T13:17:54;2.00;;;1.10;;
77322;SDS011;66384;51.052;9.850;2023-03-23T13:20:46;2.70;;;1.30;;
77322;SDS011;66384;51.052;9.850;2023-03-23T13:23:23;1.70;;;0.90;;
77322;SDS011;66384;51.052;9.850;2023-03-23T13:25:59;2.30;;;1.40;;
77322;SDS011;66384;51.052;9.850;2023-03-23T13:28:32;1.60;;;1.10;;
77322;SDS011;66384;51.052;9.850;2023-03-23T13:31:17;3.60;;;1.40;;
77322;SDS011;66384;51.052;9.850;2023-03-23T13:33:53;1.40;;;1.10;;
77322;SDS011;66384;51.052;9.850;2023-03-23T13:36:28;1.40;;;1.20;;
77322;SDS011;66384;51.052;9.850;2023-03-23T13:39:00;1.10;;;0.90;;
77322;SDS011;66384;51.052;9.850;2023-03-23T13:41:33;1.80;;;1.40;;
77322;SDS011;66384;51.052;9.850;2023-03-23T13:44:17;1.10;;;1.00;;
77322;SDS011;66384;51.052;9.850;2023-03-23T13:47:06;1.90;;;1.30;;
77322;SDS011;66384;51.052;9.850;2023-03-23T13:49:48;1.70;;;1.30;;
77322;SDS011;66384;51.052;9.850;2023-03-23T13:52:23;2.30;;;1.40;;
77322;SDS011;66384;51.052;9.850;2023-03-23T13:55:17;2.30;;;1.20;;
77322;SDS011;66384;51.052;9.850;2023-03-23T13:57:52;2.50;;;1.50;;
77322;SDS011;66384;51.052;9.850;2023-03-23T14:00:33;1.20;;;1.00;;
77322;SDS011;66384;51.052;9.850;2023-03-23T14:03:05;4.00;;;1.10;;
77322;SDS011;66384;51.052;9.850;2023-03-23T14:05:41;1.30;;;1.10;;
77322;SDS011;66384;51.052;9.850;2023-03-23T14:08:13;1.90;;;1.10;;
77322;SDS011;66384;51.052;9.850;2023-03-23T14:10:51;1.90;;;1.20;;
77322;SDS011;66384;51.052;9.850;2023-03-23T14:13:30;1.50;;;1.20;;
77322;SDS011;66384;51.052;9.850;2023-03-23T14:16:03;2.10;;;1.10;;
77322;SDS011;66384;51.052;9.850;2023-03-23T14:18:52;1.20;;;0.80;;
77322;SDS011;66384;51.052;9.850;2023-03-23T14:21:25;1.10;;;0.90;;
77322;SDS011;66384;51.052;9.850;2023-03-23T14:24:01;1.50;;;1.00;;
77322;SDS011;66384;51.052;9.850;2023-03-23T14:26:34;1.40;;;0.90;;
77322;SDS011;66384;51.052;9.850;2023-03-23T14:29:04;1.20;;;0.90;;
77322;SDS011;66384;51.052;9.850;2023-03-23T14:31:37;1.10;;;1.00;;
77322;SDS011;66384;51.052;9.850;2023-03-23T14:34:11;2.20;;;1.10;;
77322;SDS011;66384;51.052;9.850;2023-03-23T14:36:43;1.50;;;0.90;;
77322;SDS011;66384;51.052;9.850;2023-03-23T14:39:16;1.20;;;1.10;;
77322;SDS011;66384;51.052;9.850;2023-03-23T14:41:50;2.10;;;1.30;;
77322;SDS011;66384;51.052;9.850;2023-03-23T14:44:23;2.10;;;1.40;;
77322;SDS011;66384;51.052;9.850;2023-03-23T14:46:55;1.60;;;1.20;;
77322;SDS011;66384;51.052;9.850;2023-03-23T14:49:29;2.80;;;1.10;;
77322;SDS011;66384;51.052;9.850;2023-03-23T14:52:02;1.50;;;0.90;;
77322;SDS011;66384;51.052;9.850;2023-03-23T14:54:36;1.80;;;1.00;;
77322;SDS011;66384;51.052;9.850;2023-03-23T14:57:12;1.70;;;1.40;;
77322;SDS011;66384;51.052;9.850;2023-03-23T14:59:43;1.20;;;1.10;;
77322;SDS011;66384;51.052;9.850;2023-03-23T15:02:14;1.40;;;1.10;;
77322;SDS011;66384;51.052;9.850;2023-03-23T15:04:50;1.60;;;1.10;;
77322;SDS011;66384;51.052;9.850;2023-03-23T15:07:22;1.40;;;1.10;;
77322;SDS011;66384;51.052;9.850;2023-03-23T15:09:58;1.50;;;1.20;;
77322;SDS011;66384;51.052;9.850;2023-03-23T15:12:29;1.60;;;1.30;;
77322;SDS011;66384;51.052;9.850;2023-03-23T15:14:59;1.70;;;1.10;;
77322;SDS011;66384;51.052;9.850;2023-03-23T15:17:34;1.70;;;1.30;;
77322;SDS011;66384;51.052;9.850;2023-03-23T15:20:09;0.90;;;0.90;;
77322;SDS011;66384;51.052;9.850;2023-03-23T15:22:48;1.10;;;0.90;;
77322;SDS011;66384;51.052;9.850;2023-03-23T15:25:19;1.50;;;1.20;;
77322;SDS011;66384;51.052;9.850;2023-03-23T15:27:50;1.50;;;1.10;;
77322;SDS011;66384;51.052;9.850;2023-03-23T15:30:30;1.60;;;1.10;;
77322;SDS011;66384;51.052;9.850;2023-03-23T15:33:05;1.30;;;1.00;;
77322;SDS011;66384;51.052;9.850;2023-03-23T15:35:38;1.50;;;1.20;;
77322;SDS011;66384;51.052;9.850;2023-03-23T15:38:17;2.70;;;1.40;;
77322;SDS011;66384;51.052;9.850;2023-03-23T15:40:50;2.80;;;1.80;;
77322;SDS011;66384;51.052;9.850;2023-03-23T15:43:22;1.30;;;1.10;;
77322;SDS011;66384;51.052;9.850;2023-03-23T15:45:57;1.60;;;1.20;;
77322;SDS011;66384;51.052;9.850;2023-03-23T15:48:30;1.60;;;1.20;;
77322;SDS011;66384;51.052;9.850;2023-03-23T15:51:01;1.10;;;0.90;;
77322;SDS011;66384;51.052;9.850;2023-03-23T15:53:33;1.80;;;1.40;;
77322;SDS011;66384;51.052;9.850;2023-03-23T15:56:06;1.50;;;1.00;;
77322;SDS011;66384;51.052;9.850;2023-03-23T15:58:38;1.00;;;0.90;;